Time;durP1;ratioP1;P1;durP2;ratioP2;P2;SDS_P1;SDS_P2;PMS_P1;PMS_P2;Temp;Humidity;BMP_temperature;BMP_pressure;BME280_temperature;BME280_humidity;BME280_pressure;Samples;Min_cycle;Max_cycle;Signal;HPM_P1;HPM_P2
2024/01/11 00:00:52;;;;;;;56.25;23.90;;;-2.40;64.80;;;;;;4953064;28;20031;-59
2024/01/11 00:03:18;;;;;;;55.30;24.33;;;-2.40;64.70;;;;;;4929418;28;20038;-60
2024/01/11 00:05:44;;;;;;;53.10;24.23;;;-2.20;64.70;;;;;;4950425;28;20026;-60
2024/01/11 00:08:11;;;;;;;57.40;26.08;;;-2.40;64.30;;;;;;4934415;28;20039;-60
2024/01/11 00:10:36;;;;;;;58.45;25.05;;;-2.30;65.20;;;;;;4953862;28;20031;-59
2024/01/11 00:13:02;;;;;;;58.10;25.85;;;-2.50;64.50;;;;;;4943958;29;20037;-61
2024/01/11 00:15:28;;;;;;;55.67;25.42;;;-2.50;64.40;;;;;;4939514;28;20426;-59
2024/01/11 00:17:53;;;;;;;56.22;25.90;;;-2.50;64.20;;;;;;4951554;28;20031;-59
2024/01/11 00:20:19;;;;;;;51.70;24.42;;;-2.30;64.30;;;;;;4952778;28;20038;-61
2024/01/11 00:22:45;;;;;;;54.53;24.45;;;-2.30;64.30;;;;;;4958303;28;20026;-60
2024/01/11 00:25:10;;;;;;;51.97;24.25;;;-2.60;64.20;;;;;;4959188;28;20042;-61
2024/01/11 00:27:36;;;;;;;50.63;23.38;;;-2.40;64.40;;;;;;4947056;28;20454;-61
2024/01/11 00:30:02;;;;;;;58.42;24.27;;;-2.60;64.10;;;;;;4936965;28;20035;-60
2024/01/11 00:32:27;;;;;;;52.35;23.25;;;-2.60;64.00;;;;;;4952411;28;20031;-60
2024/01/11 00:34:53;;;;;;;54.70;23.85;;;-2.60;64.00;;;;;;4956685;28;20038;-60
2024/01/11 00:37:19;;;;;;;52.60;24.73;;;-2.60;64.10;;;;;;4953394;28;20031;-59
2024/01/11 00:39:45;;;;;;;53.05;23.70;;;-2.70;63.90;;;;;;4953322;28;20031;-61
2024/01/11 00:42:10;;;;;;;53.22;23.38;;;-2.70;63.90;;;;;;4954783;28;20030;-61
2024/01/11 00:44:36;;;;;;;51.22;23.83;;;-2.70;63.90;;;;;;4950761;28;20045;-59
2024/01/11 00:47:02;;;;;;;55.95;24.95;;;-2.70;64.10;;;;;;4931688;28;20379;-61
2024/01/11 00:49:27;;;;;;;54.50;23.67;;;-2.70;64.30;;;;;;4937007;28;20105;-61
2024/01/11 00:51:53;;;;;;;54.92;24.75;;;-2.70;64.30;;;;;;4953117;28;20034;-59
2024/01/11 00:54:19;;;;;;;54.78;23.63;;;-2.70;64.20;;;;;;4950323;28;20394;-61
2024/01/11 00:56:44;;;;;;;53.28;25.00;;;-2.60;64.10;;;;;;4932589;29;20454;-59
2024/01/11 00:59:10;;;;;;;51.55;23.92;;;-2.70;64.10;;;;;;4956970;28;20022;-62
2024/01/11 01:01:36;;;;;;;50.97;22.75;;;-2.80;64.20;;;;;;4936988;28;20549;-61
2024/01/11 01:04:02;;;;;;;47.33;23.60;;;-2.50;64.20;;;;;;4954638;28;20604;-61
2024/01/11 01:06:27;;;;;;;49.78;22.35;;;-2.80;63.90;;;;;;4957370;28;20039;-60
2024/01/11 01:08:55;;;;;;;49.15;22.20;;;-2.80;63.70;;;;;;4953499;28;20042;-60
2024/01/11 01:11:20;;;;;;;50.60;22.77;;;-2.60;63.70;;;;;;4948610;28;20031;-61
2024/01/11 01:13:46;;;;;;;51.50;22.85;;;-2.80;63.50;;;;;;4949527;28;20117;-61
2024/01/11 01:16:12;;;;;;;50.20;23.10;;;-2.90;63.60;;;;;;4949653;28;20108;-59
2024/01/11 01:18:37;;;;;;;50.47;23.05;;;-2.90;63.80;;;;;;4949960;28;20066;-60
2024/01/11 01:21:06;;;;;;;57.13;23.77;;;-2.90;64.00;;;;;;4949692;28;20479;-61
2024/01/11 01:23:32;;;;;;;48.92;23.45;;;-2.90;64.10;;;;;;4952437;28;20027;-61
2024/01/11 01:25:58;;;;;;;52.47;23.75;;;-2.90;64.20;;;;;;4953114;28;20038;-61
2024/01/11 01:28:23;;;;;;;49.08;23.60;;;-2.90;64.30;;;;;;4950900;28;20039;-61
2024/01/11 01:30:49;;;;;;;50.42;25.20;;;-2.90;64.30;;;;;;4949379;28;20027;-61
2024/01/11 01:33:15;;;;;;;47.22;22.55;;;-2.90;64.20;;;;;;4950197;28;20029;-60
2024/01/11 01:35:40;;;;;;;50.25;24.40;;;-2.90;64.10;;;;;;4950493;28;20023;-61
2024/01/11 01:38:06;;;;;;;48.92;23.30;;;-2.90;64.10;;;;;;4948425;28;20038;-59
2024/01/11 01:40:31;;;;;;;51.70;23.02;;;-2.90;64.10;;;;;;4949492;28;20042;-61
2024/01/11 01:43:00;;;;;;;50.03;23.35;;;-3.00;64.10;;;;;;4948580;28;20463;-60
2024/01/11 01:45:27;;;;;;;51.25;22.45;;;-3.00;64.00;;;;;;4952517;28;20051;-61
2024/01/11 01:47:54;;;;;;;46.08;22.40;;;-3.00;63.90;;;;;;4951036;28;20035;-60
2024/01/11 01:50:20;;;;;;;55.97;23.98;;;-2.80;64.10;;;;;;4952361;28;20034;-60
2024/01/11 01:52:47;;;;;;;51.65;23.77;;;-2.80;64.20;;;;;;4934857;28;20110;-61
2024/01/11 01:55:15;;;;;;;59.13;24.02;;;-3.00;64.00;;;;;;4951944;28;20371;-61
2024/01/11 01:57:43;;;;;;;51.40;24.58;;;-3.00;64.00;;;;;;4954209;28;20494;-60
2024/01/11 02:00:11;;;;;;;53.05;24.40;;;-2.80;64.10;;;;;;4953356;28;20039;-61
2024/01/11 02:02:39;;;;;;;51.78;23.75;;;-3.00;64.00;;;;;;4954162;28;20034;-60
2024/01/11 02:05:06;;;;;;;52.88;24.17;;;-3.00;64.00;;;;;;4953253;28;20503;-61
2024/01/11 02:07:32;;;;;;;49.22;23.23;;;-3.00;64.00;;;;;;4947871;28;20031;-59
2024/01/11 02:09:58;;;;;;;44.53;22.13;;;-3.00;64.00;;;;;;4950065;28;20042;-61
2024/01/11 02:12:25;;;;;;;52.90;21.98;;;-3.00;64.10;;;;;;4948548;28;20027;-60
2024/01/11 02:14:53;;;;;;;51.30;22.23;;;-2.90;64.10;;;;;;4937724;28;20489;-61
2024/01/11 02:17:19;;;;;;;45.78;22.35;;;-3.00;63.90;;;;;;4948032;28;20027;-61
2024/01/11 02:19:45;;;;;;;44.65;21.27;;;-3.00;63.70;;;;;;4949437;28;20027;-60
2024/01/11 02:22:29;;;;;;;47.85;21.33;;;-3.00;63.60;;;;;;4952127;28;20031;-60
2024/01/11 02:24:54;;;;;;;34.10;15.85;;;-2.90;63.60;;;;;;4955495;28;20034;-60
2024/01/11 02:27:20;;;;;;;47.08;22.40;;;-3.10;63.40;;;;;;4952781;28;20130;-61
2024/01/11 02:29:46;;;;;;;51.63;23.38;;;-3.10;63.50;;;;;;4953392;28;20486;-61
2024/01/11 02:32:12;;;;;;;51.70;22.55;;;-3.10;63.40;;;;;;4936623;28;20031;-61
2024/01/11 02:34:38;;;;;;;50.70;22.58;;;-3.10;63.40;;;;;;4945879;28;20041;-59
2024/01/11 02:37:05;;;;;;;56.45;21.83;;;-3.20;63.30;;;;;;4946241;28;20034;-59
2024/01/11 02:39:31;;;;;;;48.72;21.60;;;-3.20;63.40;;;;;;4950963;28;20053;-61
2024/01/11 02:42:00;;;;;;;50.47;22.77;;;-3.20;63.60;;;;;;4952755;28;20523;-59
2024/01/11 02:44:25;;;;;;;47.30;21.48;;;-3.20;63.70;;;;;;4953031;28;20110;-61
2024/01/11 02:46:51;;;;;;;50.05;22.65;;;-3.20;63.70;;;;;;4873918;28;20791;-59
2024/01/11 02:49:18;;;;;;;52.45;22.23;;;-3.20;64.50;;;;;;4935278;28;20037;-59
2024/01/11 02:51:44;;;;;;;52.17;22.80;;;-3.20;63.80;;;;;;4948737;28;20102;-61
2024/01/11 02:54:09;;;;;;;58.35;22.98;;;-3.20;64.00;;;;;;4949797;28;20055;-60
2024/01/11 02:56:35;;;;;;;58.58;23.42;;;-3.20;64.10;;;;;;4951960;28;20442;-60
2024/01/11 02:59:01;;;;;;;53.05;23.50;;;-3.30;64.10;;;;;;4953649;28;20023;-60
2024/01/11 03:01:26;;;;;;;49.65;22.50;;;-3.20;64.10;;;;;;4951242;28;20042;-61
2024/01/11 03:03:53;;;;;;;50.85;24.65;;;-3.20;64.10;;;;;;4950852;28;20030;-60
2024/01/11 03:06:21;;;;;;;52.67;23.83;;;-3.20;64.20;;;;;;4953760;28;20110;-60
2024/01/11 03:08:48;;;;;;;50.08;23.00;;;-3.20;64.20;;;;;;4954225;28;20050;-58
2024/01/11 03:11:14;;;;;;;52.00;23.13;;;-3.20;64.20;;;;;;4947639;28;20027;-61
2024/01/11 03:13:40;;;;;;;49.20;22.52;;;-3.20;64.20;;;;;;4955835;28;20023;-59
2024/01/11 03:16:06;;;;;;;44.85;21.95;;;-3.20;64.20;;;;;;4952527;28;20031;-59
2024/01/11 03:18:31;;;;;;;49.33;21.52;;;-3.20;64.20;;;;;;4934738;28;20031;-61
2024/01/11 03:20:57;;;;;;;53.35;21.77;;;-3.20;64.10;;;;;;4953597;28;20043;-61
2024/01/11 03:23:23;;;;;;;54.75;24.83;;;-3.30;63.90;;;;;;4949980;28;20027;-60
2024/01/11 03:25:48;;;;;;;49.50;23.13;;;-3.30;63.90;;;;;;4949395;28;20031;-60
2024/01/11 03:28:14;;;;;;;48.97;23.98;;;-3.30;64.00;;;;;;4946636;28;20035;-59
2024/01/11 03:30:40;;;;;;;50.00;22.30;;;-3.30;64.10;;;;;;4948035;28;20034;-61
2024/01/11 03:33:06;;;;;;;50.85;23.58;;;-3.30;64.20;;;;;;4951476;28;20035;-60
2024/01/11 03:35:31;;;;;;;51.30;22.42;;;-3.10;64.20;;;;;;4934306;28;20114;-60
2024/01/11 03:37:57;;;;;;;55.25;23.10;;;-3.30;64.00;;;;;;4933596;28;20090;-61
2024/01/11 03:40:23;;;;;;;51.45;22.52;;;-3.20;63.90;;;;;;4948946;28;20027;-61
2024/01/11 03:42:48;;;;;;;55.45;23.67;;;-3.20;63.80;;;;;;4953319;28;20034;-61
2024/01/11 03:45:19;;;;;;;56.90;22.70;;;-3.40;63.80;;;;;;4874139;28;20024;-60
2024/01/11 03:47:45;;;;;;;55.80;23.17;;;-3.40;63.90;;;;;;4953353;28;20035;-60
2024/01/11 03:50:10;;;;;;;43.45;21.13;;;-3.40;64.00;;;;;;4939908;28;20031;-60
2024/01/11 03:52:36;;;;;;;52.60;22.75;;;-3.40;64.00;;;;;;4954286;28;20031;-61
2024/01/11 03:55:02;;;;;;;46.88;22.02;;;-3.50;64.00;;;;;;4951644;28;20050;-61
2024/01/11 03:57:28;;;;;;;51.90;22.00;;;-3.40;64.30;;;;;;4956492;28;20026;-60
2024/01/11 03:59:53;;;;;;;51.25;22.40;;;-3.50;64.10;;;;;;4951425;28;20039;-60
2024/01/11 04:02:19;;;;;;;49.17;21.63;;;-3.50;64.10;;;;;;4946793;28;20082;-60
2024/01/11 04:04:45;;;;;;;52.28;23.63;;;-3.40;63.90;;;;;;4953551;28;20038;-61
2024/01/11 04:07:10;;;;;;;51.72;22.40;;;-3.50;63.70;;;;;;4951112;28;20139;-62
2024/01/11 04:09:39;;;;;;;49.33;21.73;;;-3.50;63.70;;;;;;4953157;28;20031;-59
2024/01/11 04:12:06;;;;;;;48.97;21.30;;;-3.50;63.50;;;;;;4954458;28;20105;-60
2024/01/11 04:14:31;;;;;;;53.95;24.00;;;-3.50;63.40;;;;;;4955828;28;20069;-61
2024/01/11 04:16:57;;;;;;;55.97;23.00;;;-3.60;63.50;;;;;;4954744;28;20411;-60
2024/01/11 04:19:22;;;;;;;53.90;23.20;;;-3.60;63.60;;;;;;4954196;28;20025;-60
2024/01/11 04:21:48;;;;;;;45.67;21.90;;;-3.60;63.80;;;;;;4953160;28;20050;-60
2024/01/11 04:24:14;;;;;;;53.72;22.88;;;-3.60;63.90;;;;;;4951385;28;20050;-59
2024/01/11 04:26:39;;;;;;;50.47;22.10;;;-3.60;63.90;;;;;;4957638;28;20042;-61
2024/01/11 04:29:05;;;;;;;54.53;23.65;;;-3.60;63.90;;;;;;4953354;28;20420;-60
2024/01/11 04:31:31;;;;;;;54.25;21.92;;;-3.40;63.80;;;;;;4958036;28;20134;-60
2024/01/11 04:33:56;;;;;;;52.83;24.10;;;-3.60;63.70;;;;;;4958647;28;20138;-62
2024/01/11 04:36:22;;;;;;;54.97;23.30;;;-3.60;63.60;;;;;;4954811;28;20031;-59
2024/01/11 04:38:48;;;;;;;50.30;23.10;;;-3.60;63.60;;;;;;4958016;28;20102;-60
2024/01/11 04:41:14;;;;;;;51.67;21.90;;;-3.60;63.60;;;;;;4948714;28;20486;-59
2024/01/11 04:43:44;;;;;;;55.00;22.90;;;-3.70;63.80;;;;;;4954047;28;20019;-60
2024/01/11 04:46:20;;;;;;;47.13;23.13;;;-3.70;63.80;;;;;;4873428;28;20027;-59
2024/01/11 04:48:48;;;;;;;45.20;20.67;;;-3.70;63.90;;;;;;4950275;28;20078;-60
2024/01/11 04:51:15;;;;;;;47.85;21.23;;;-3.70;63.90;;;;;;4949666;28;20035;-59
2024/01/11 04:53:41;;;;;;;48.80;22.63;;;-3.70;64.00;;;;;;4951466;28;20406;-60
2024/01/11 04:56:08;;;;;;;51.25;22.85;;;-3.60;64.20;;;;;;4955350;28;20106;-61
2024/01/11 04:58:39;;;;;;;49.15;22.00;;;-3.70;64.20;;;;;;4949404;28;20521;-59
2024/01/11 05:01:06;;;;;;;52.78;23.33;;;-3.70;64.10;;;;;;4952065;28;20062;-60
2024/01/11 05:03:32;;;;;;;48.53;22.83;;;-3.70;64.00;;;;;;4950130;28;20035;-61
2024/01/11 05:06:01;;;;;;;48.33;23.15;;;-3.70;64.10;;;;;;4942154;29;20485;-60
2024/01/11 05:08:27;;;;;;;55.83;22.83;;;-3.60;64.30;;;;;;4949154;28;20062;-61
2024/01/11 05:10:53;;;;;;;50.17;23.38;;;-3.70;64.20;;;;;;4943705;28;20063;-59
2024/01/11 05:13:19;;;;;;;52.80;21.83;;;-3.70;64.20;;;;;;4952402;28;20054;-60
2024/01/11 05:15:45;;;;;;;52.80;22.65;;;-3.60;64.20;;;;;;4941591;28;20027;-60
2024/01/11 05:18:11;;;;;;;49.67;23.17;;;-3.70;64.00;;;;;;4950923;28;20035;-61
2024/01/11 05:20:37;;;;;;;53.20;23.50;;;-3.70;63.90;;;;;;4953121;28;20031;-61
2024/01/11 05:23:03;;;;;;;49.08;23.33;;;-3.70;63.80;;;;;;4949584;28;20031;-59
2024/01/11 05:25:33;;;;;;;58.55;24.50;;;-3.70;64.50;;;;;;4954618;28;20450;-60
2024/01/11 05:28:00;;;;;;;55.60;25.27;;;-3.70;63.90;;;;;;4936144;29;20106;-60
2024/01/11 05:30:25;;;;;;;67.28;25.73;;;-3.70;64.00;;;;;;4949076;28;20082;-61
2024/01/11 05:32:51;;;;;;;68.75;26.13;;;-3.70;64.10;;;;;;4952357;28;20031;-60
2024/01/11 05:35:16;;;;;;;54.28;25.63;;;-3.70;64.30;;;;;;4950746;28;20176;-60
2024/01/11 05:37:42;;;;;;;60.50;26.60;;;-3.70;64.30;;;;;;4936949;28;20497;-59
2024/01/11 05:40:08;;;;;;;68.53;32.78;;;-3.70;64.20;;;;;;4952956;28;20079;-60
2024/01/11 05:42:34;;;;;;;66.00;27.85;;;-3.70;64.10;;;;;;4958013;28;20754;-61
2024/01/11 05:44:59;;;;;;;60.10;26.98;;;-3.70;64.10;;;;;;4958584;28;20033;-61
2024/01/11 05:47:25;;;;;;;60.15;25.40;;;-3.70;63.90;;;;;;4952473;28;20035;-60
2024/01/11 05:49:51;;;;;;;53.70;23.13;;;-3.50;64.00;;;;;;4953453;28;20102;-59
2024/01/11 05:52:16;;;;;;;51.63;23.02;;;-3.70;64.00;;;;;;4952109;28;20062;-61
2024/01/11 05:54:42;;;;;;;57.17;24.13;;;-3.70;64.10;;;;;;4955866;28;20074;-59
2024/01/11 05:57:08;;;;;;;54.10;24.05;;;-3.70;64.10;;;;;;4950779;28;20031;-60
2024/01/11 05:59:33;;;;;;;54.50;23.58;;;-3.70;64.10;;;;;;4952903;28;20054;-61
2024/01/11 06:02:01;;;;;;;53.50;23.58;;;-3.70;64.10;;;;;;4945002;28;20077;-59
2024/01/11 06:04:27;;;;;;;54.05;22.65;;;-3.70;64.10;;;;;;4954935;28;20031;-59
2024/01/11 06:06:53;;;;;;;56.53;23.35;;;-3.70;64.10;;;;;;4932231;28;20043;-60
2024/01/11 06:09:18;;;;;;;55.75;22.13;;;-3.80;64.20;;;;;;4953743;28;20042;-60
2024/01/11 06:11:44;;;;;;;53.95;22.70;;;-3.70;64.30;;;;;;4947557;28;20031;-60
2024/01/11 06:14:10;;;;;;;50.38;23.10;;;-3.80;64.40;;;;;;4947852;28;20031;-59
2024/01/11 06:16:36;;;;;;;58.25;23.08;;;-3.70;64.50;;;;;;4950942;28;20082;-60
2024/01/11 06:19:02;;;;;;;50.65;23.40;;;-3.70;64.50;;;;;;4950436;28;20034;-61
2024/01/11 06:21:28;;;;;;;57.25;23.85;;;-3.70;64.30;;;;;;4958396;28;20031;-59
2024/01/11 06:23:54;;;;;;;49.03;22.25;;;-3.70;64.30;;;;;;4955299;28;20027;-61
2024/01/11 06:26:19;;;;;;;51.30;21.85;;;-3.70;64.30;;;;;;4953219;28;20050;-60
2024/01/11 06:28:45;;;;;;;56.55;22.63;;;-3.70;64.30;;;;;;4951802;28;20077;-60
2024/01/11 06:31:11;;;;;;;49.75;23.92;;;-3.70;64.30;;;;;;4948769;28;20600;-61
2024/01/11 06:33:37;;;;;;;50.75;23.52;;;-3.70;64.30;;;;;;4953778;28;20062;-60
2024/01/11 06:36:07;;;;;;;49.67;21.73;;;-3.70;64.30;;;;;;4951051;28;20058;-60
2024/01/11 06:38:33;;;;;;;48.40;22.95;;;-3.70;64.30;;;;;;4957791;28;20088;-59
2024/01/11 06:40:59;;;;;;;47.00;21.35;;;-3.70;64.40;;;;;;4951785;28;20494;-59
2024/01/11 06:43:25;;;;;;;50.30;22.73;;;-3.70;64.30;;;;;;4939758;28;20035;-60
2024/01/11 06:45:50;;;;;;;61.78;26.48;;;-3.70;64.30;;;;;;4955063;28;20027;-60
2024/01/11 06:48:16;;;;;;;59.55;27.23;;;-3.80;64.20;;;;;;4951802;28;20110;-61
2024/01/11 06:50:42;;;;;;;65.60;28.65;;;-3.80;64.10;;;;;;4954706;28;20023;-60
2024/01/11 06:53:07;;;;;;;68.32;28.98;;;-3.80;64.10;;;;;;4959692;28;20055;-61
2024/01/11 06:55:33;;;;;;;64.55;30.52;;;-3.80;64.10;;;;;;4950292;28;20489;-59
2024/01/11 06:57:59;;;;;;;68.55;29.40;;;-3.80;64.20;;;;;;4951928;28;20510;-60
2024/01/11 07:00:24;;;;;;;67.28;30.23;;;-3.80;64.30;;;;;;4952443;28;20474;-59
2024/01/11 07:02:51;;;;;;;70.63;30.40;;;-3.80;64.30;;;;;;4952410;28;20027;-61
2024/01/11 07:05:16;;;;;;;69.00;29.17;;;-3.80;64.20;;;;;;4951210;28;20035;-61
2024/01/11 07:07:42;;;;;;;60.15;27.55;;;-3.80;64.00;;;;;;4951979;28;20081;-59
2024/01/11 07:10:08;;;;;;;62.67;28.17;;;-3.80;64.00;;;;;;4954216;28;20045;-61
2024/01/11 07:12:34;;;;;;;60.75;26.98;;;-3.80;64.10;;;;;;4955781;28;20026;-60
2024/01/11 07:15:00;;;;;;;72.25;30.13;;;-3.90;64.10;;;;;;4938524;28;20090;-60
2024/01/11 07:17:25;;;;;;;57.97;27.27;;;-3.80;64.20;;;;;;4956534;28;20034;-61
2024/01/11 07:19:51;;;;;;;62.63;28.08;;;-3.80;64.30;;;;;;4953986;28;20039;-62
2024/01/11 07:22:17;;;;;;;64.03;28.00;;;-3.80;64.30;;;;;;4960518;28;20027;-60
2024/01/11 07:24:42;;;;;;;69.07;29.40;;;-3.80;64.10;;;;;;4953086;28;20031;-62
2024/01/11 07:27:08;;;;;;;69.20;27.70;;;-3.90;63.90;;;;;;4956582;28;20097;-61
2024/01/11 07:29:34;;;;;;;65.65;28.48;;;-3.80;64.10;;;;;;4952446;28;20039;-61
2024/01/11 07:32:00;;;;;;;72.28;28.58;;;-3.70;64.10;;;;;;4946978;28;20035;-61
2024/01/11 07:34:27;;;;;;;71.55;28.48;;;-3.90;64.00;;;;;;4950664;28;20039;-62
2024/01/11 07:36:53;;;;;;;65.30;28.33;;;-3.70;64.10;;;;;;4960259;28;20027;-61
2024/01/11 07:39:19;;;;;;;68.55;28.33;;;-3.80;64.10;;;;;;4938029;28;20046;-62
2024/01/11 07:41:44;;;;;;;81.07;37.40;;;-3.80;64.00;;;;;;4958654;28;20050;-61
2024/01/11 07:44:10;;;;;;;68.35;32.38;;;-3.80;64.10;;;;;;4951063;28;20094;-61
2024/01/11 07:46:36;;;;;;;63.30;27.83;;;-3.80;64.20;;;;;;4868852;28;20042;-61
2024/01/11 07:49:05;;;;;;;64.18;26.90;;;-3.70;64.30;;;;;;4956669;28;20027;-62
2024/01/11 07:51:32;;;;;;;59.60;26.95;;;-3.70;64.30;;;;;;4935365;28;20031;-62
2024/01/11 07:53:58;;;;;;;59.13;27.05;;;-3.70;64.40;;;;;;4939011;28;20114;-62
2024/01/11 07:56:24;;;;;;;56.13;25.67;;;-3.60;64.60;;;;;;4953665;28;20023;-62
2024/01/11 07:58:50;;;;;;;61.38;27.38;;;-3.60;64.60;;;;;;4957196;28;20042;-63
2024/01/11 08:01:16;;;;;;;56.80;26.85;;;-3.50;64.60;;;;;;4955088;28;20067;-61
2024/01/11 08:03:44;;;;;;;55.47;25.10;;;-3.50;64.70;;;;;;4949831;28;20038;-61
2024/01/11 08:06:10;;;;;;;51.53;23.95;;;-3.50;64.50;;;;;;4953585;28;20063;-61
2024/01/11 08:08:38;;;;;;;56.95;24.45;;;-3.40;64.60;;;;;;4952871;28;20035;-61
2024/01/11 08:11:04;;;;;;;56.50;25.35;;;-3.30;64.70;;;;;;4952918;28;20031;-60
2024/01/11 08:13:31;;;;;;;59.97;25.52;;;-3.30;64.90;;;;;;4955723;28;20023;-63
2024/01/11 08:15:57;;;;;;;71.03;26.00;;;-3.20;65.00;;;;;;4953388;28;20039;-62
2024/01/11 08:18:23;;;;;;;73.30;25.30;;;-3.20;65.00;;;;;;4950296;28;20042;-62
2024/01/11 08:20:49;;;;;;;59.00;25.42;;;-3.20;65.00;;;;;;4932531;29;20031;-61
2024/01/11 08:23:15;;;;;;;67.13;28.25;;;-3.10;65.10;;;;;;4953998;28;20395;-62
2024/01/11 08:25:40;;;;;;;62.33;26.98;;;-3.00;65.20;;;;;;4931199;29;20031;-61
2024/01/11 08:28:07;;;;;;;66.72;26.63;;;-2.90;65.30;;;;;;4959126;28;20817;-63
2024/01/11 08:30:32;;;;;;;60.75;27.42;;;-2.90;65.30;;;;;;4955095;28;20026;-62
2024/01/11 08:32:58;;;;;;;61.53;26.58;;;-2.70;65.30;;;;;;4956155;28;20062;-62
2024/01/11 08:35:24;;;;;;;61.25;26.33;;;-2.70;65.20;;;;;;4933182;28;20378;-62
2024/01/11 08:37:49;;;;;;;66.30;26.17;;;-2.60;65.00;;;;;;4936541;28;20497;-62
2024/01/11 08:40:15;;;;;;;63.90;27.08;;;-2.20;65.20;;;;;;4949380;28;20019;-62
2024/01/11 08:42:42;;;;;;;67.43;25.60;;;-2.40;65.00;;;;;;4951075;28;20035;-62
2024/01/11 08:45:09;;;;;;;61.47;27.95;;;-2.30;65.00;;;;;;4883006;28;20027;-63
2024/01/11 08:47:35;;;;;;;54.97;25.42;;;-2.20;64.90;;;;;;4951961;28;20045;-62
2024/01/11 08:50:01;;;;;;;60.63;25.70;;;-1.90;65.10;;;;;;4951116;28;20023;-62
2024/01/11 08:52:27;;;;;;;72.35;28.77;;;-1.90;65.10;;;;;;4933038;28;20083;-62
2024/01/11 08:54:52;;;;;;;62.72;27.55;;;-1.70;65.20;;;;;;4950404;28;20047;-63
2024/01/11 08:57:18;;;;;;;61.05;26.08;;;-1.70;65.20;;;;;;4938624;28;20375;-61
2024/01/11 08:59:44;;;;;;;59.10;26.25;;;-1.60;65.10;;;;;;4955626;28;20028;-62
2024/01/11 09:02:10;;;;;;;59.72;27.08;;;-1.50;65.00;;;;;;4951936;28;20047;-62
2024/01/11 09:04:36;;;;;;;66.75;27.23;;;-1.40;65.00;;;;;;4952147;28;20034;-62
2024/01/11 09:07:02;;;;;;;55.17;24.83;;;-1.30;65.10;;;;;;4949963;28;20051;-61
2024/01/11 09:09:28;;;;;;;65.93;27.65;;;-1.20;65.00;;;;;;4952466;28;20477;-62
2024/01/11 09:11:53;;;;;;;51.90;24.92;;;-0.80;65.00;;;;;;4949582;28;20438;-62
2024/01/11 09:14:19;;;;;;;61.88;27.17;;;-0.80;64.90;;;;;;4946494;28;20107;-62
2024/01/11 09:16:45;;;;;;;59.38;27.23;;;-0.80;64.80;;;;;;4931091;28;20031;-60
2024/01/11 09:19:12;;;;;;;59.10;28.52;;;-0.50;64.80;;;;;;4948529;28;20031;-61
2024/01/11 09:21:37;;;;;;;61.78;26.98;;;-0.50;64.70;;;;;;4953352;28;20107;-63
2024/01/11 09:24:03;;;;;;;71.28;28.85;;;-0.40;65.30;;;;;;4953594;28;20138;-61
2024/01/11 09:26:29;;;;;;;64.10;27.60;;;-0.40;64.50;;;;;;4949487;28;20039;-63
2024/01/11 09:28:54;;;;;;;62.10;28.67;;;-0.40;64.50;;;;;;4950419;28;20054;-62
2024/01/11 09:31:20;;;;;;;58.45;27.25;;;-0.30;64.30;;;;;;4949398;28;20027;-61
2024/01/11 09:33:46;;;;;;;60.70;27.63;;;-0.20;64.30;;;;;;4933584;29;20141;-61
2024/01/11 09:36:14;;;;;;;55.45;26.65;;;0.20;64.50;;;;;;4949429;28;20050;-62
2024/01/11 09:38:40;;;;;;;60.08;26.52;;;0.20;64.40;;;;;;4958260;28;20031;-61
2024/01/11 09:41:08;;;;;;;63.50;28.25;;;0.10;64.10;;;;;;4946671;28;21000;-61
2024/01/11 09:43:37;;;;;;;58.60;26.77;;;0.50;64.20;;;;;;4950177;28;20019;-61
2024/01/11 09:46:05;;;;;;;65.05;28.25;;;0.70;64.10;;;;;;4949393;28;20166;-61
2024/01/11 09:48:35;;;;;;;61.05;28.27;;;0.50;63.90;;;;;;4873506;28;20034;-62
2024/01/11 09:51:03;;;;;;;58.60;28.73;;;0.60;63.80;;;;;;4937191;28;20031;-62
2024/01/11 09:53:32;;;;;;;61.70;29.08;;;0.70;63.70;;;;;;4947678;28;20050;-61
2024/01/11 09:55:58;;;;;;;61.75;27.95;;;0.80;63.60;;;;;;4951066;28;20109;-62
2024/01/11 09:58:25;;;;;;;56.67;27.17;;;0.90;63.40;;;;;;4949456;28;20478;-62
2024/01/11 10:00:55;;;;;;;57.83;27.33;;;0.90;63.30;;;;;;4949632;28;20026;-62
2024/01/11 10:03:26;;;;;;;55.92;27.10;;;1.00;63.30;;;;;;4951599;28;20386;-62
2024/01/11 10:05:57;;;;;;;63.22;29.25;;;1.10;63.30;;;;;;4955285;28;20023;-62
2024/01/11 10:08:23;;;;;;;55.17;27.13;;;1.20;63.10;;;;;;4955221;28;20473;-62
2024/01/11 10:10:49;;;;;;;55.10;27.27;;;1.30;63.00;;;;;;4951566;28;20401;-62
2024/01/11 10:13:18;;;;;;;60.50;28.45;;;1.30;62.90;;;;;;4948245;28;20032;-62
2024/01/11 10:15:44;;;;;;;66.70;32.10;;;1.40;62.60;;;;;;4954131;28;20035;-61
2024/01/11 10:18:10;;;;;;;57.65;29.02;;;1.50;62.40;;;;;;4950006;28;20027;-62
2024/01/11 10:20:37;;;;;;;56.05;27.30;;;1.50;62.30;;;;;;4940391;28;20490;-62
2024/01/11 10:23:03;;;;;;;71.95;39.08;;;1.60;62.30;;;;;;4948938;28;20030;-61
2024/01/11 10:25:29;;;;;;;57.20;28.48;;;1.60;62.20;;;;;;4952937;28;20023;-63
2024/01/11 10:27:55;;;;;;;60.42;27.70;;;1.70;62.30;;;;;;4948192;28;20046;-62
2024/01/11 10:30:23;;;;;;;58.42;28.02;;;1.80;62.40;;;;;;4951082;28;20166;-61
2024/01/11 10:32:49;;;;;;;60.67;28.33;;;1.80;62.40;;;;;;4952938;28;20022;-61
2024/01/11 10:35:17;;;;;;;59.20;30.02;;;1.90;62.40;;;;;;4944486;28;20030;-62
2024/01/11 10:37:44;;;;;;;57.78;28.60;;;1.90;62.30;;;;;;4947177;28;20050;-61
2024/01/11 10:40:12;;;;;;;53.38;28.05;;;2.00;62.40;;;;;;4936803;28;20039;-61
2024/01/11 10:42:45;;;;;;;57.22;29.23;;;2.10;62.30;;;;;;4955236;28;20027;-61
2024/01/11 10:45:16;;;;;;;53.93;28.47;;;2.20;62.00;;;;;;4877752;28;20506;-64
2024/01/11 10:48:05;;;;;;;59.80;29.17;;;2.20;61.90;;;;;;4950837;28;20075;-62
2024/01/11 10:50:39;;;;;;;55.33;28.58;;;2.30;61.60;;;;;;4950720;28;20031;-61
2024/01/11 10:53:12;;;;;;;58.47;28.85;;;2.40;61.80;;;;;;4954071;28;20425;-61
2024/01/11 10:55:39;;;;;;;56.35;28.55;;;2.40;61.70;;;;;;4945938;28;20031;-60
2024/01/11 10:58:06;;;;;;;51.92;26.45;;;2.50;61.60;;;;;;4956288;28;20015;-61
2024/01/11 11:00:33;;;;;;;61.92;31.45;;;2.50;61.50;;;;;;4930306;28;20031;-61
2024/01/11 11:03:00;;;;;;;59.20;29.30;;;2.60;61.40;;;;;;4945674;28;20025;-61
2024/01/11 11:05:29;;;;;;;64.35;30.20;;;2.60;61.30;;;;;;4948091;28;20582;-61
2024/01/11 11:07:55;;;;;;;56.45;29.02;;;2.70;61.20;;;;;;4948433;28;20043;-61
2024/01/11 11:10:21;;;;;;;58.25;28.60;;;2.80;61.20;;;;;;4959652;28;20031;-61
2024/01/11 11:12:48;;;;;;;64.18;30.27;;;2.80;61.10;;;;;;4934867;28;20031;-62
2024/01/11 11:15:14;;;;;;;60.20;29.67;;;2.90;61.00;;;;;;4950593;28;20038;-61
2024/01/11 11:17:42;;;;;;;61.33;30.98;;;2.90;61.00;;;;;;4948395;28;20042;-61
2024/01/11 11:20:11;;;;;;;179.45;79.90;;;3.00;61.00;;;;;;4948130;28;20541;-61
2024/01/11 11:22:39;;;;;;;74.43;39.20;;;3.10;60.90;;;;;;4951026;28;20038;-61
2024/01/11 11:25:25;;;;;;;67.18;32.88;;;3.10;60.80;;;;;;4934004;28;20027;-62
2024/01/11 11:27:51;;;;;;;60.92;31.05;;;3.20;60.60;;;;;;4944485;28;20046;-62
2024/01/11 11:30:20;;;;;;;60.78;32.65;;;3.20;60.60;;;;;;4933577;29;20035;-61
2024/01/11 11:32:46;;;;;;;81.68;39.83;;;3.30;60.50;;;;;;4946466;28;20102;-62
2024/01/11 11:35:12;;;;;;;55.45;30.45;;;3.30;60.40;;;;;;4951181;28;20083;-61
2024/01/11 11:37:38;;;;;;;58.30;30.20;;;3.40;60.50;;;;;;4952514;28;20031;-61
2024/01/11 11:40:06;;;;;;;55.55;29.58;;;3.40;60.50;;;;;;4951647;28;20396;-61
2024/01/11 11:42:33;;;;;;;58.65;29.17;;;3.50;60.50;;;;;;4952206;28;20024;-60
2024/01/11 11:44:59;;;;;;;56.60;29.95;;;3.50;60.50;;;;;;4852433;29;20043;-61
2024/01/11 11:47:36;;;;;;;63.67;31.63;;;3.60;60.30;;;;;;4946695;28;20043;-61
2024/01/11 11:50:08;;;;;;;58.83;30.33;;;3.60;59.80;;;;;;4951090;28;20465;-62
2024/01/11 11:52:38;;;;;;;66.40;31.10;;;3.60;60.10;;;;;;4948484;28;20051;-61
2024/01/11 11:55:05;;;;;;;61.55;31.60;;;3.60;60.20;;;;;;4945917;28;20034;-61
2024/01/11 11:57:32;;;;;;;65.13;31.83;;;3.60;60.20;;;;;;4946794;28;20486;-62
2024/01/11 11:59:58;;;;;;;64.28;32.42;;;3.70;60.00;;;;;;4947459;28;20470;-62
2024/01/11 12:02:26;;;;;;;79.35;41.13;;;3.70;60.10;;;;;;4954103;28;20063;-62
2024/01/11 12:04:52;;;;;;;69.82;33.85;;;3.70;60.20;;;;;;4952609;28;20425;-61
2024/01/11 12:07:20;;;;;;;66.57;30.23;;;3.80;60.40;;;;;;4951250;28;20448;-63
2024/01/11 12:09:46;;;;;;;61.25;31.75;;;3.90;60.30;;;;;;4958043;28;20039;-63
2024/01/11 12:12:13;;;;;;;65.07;32.72;;;3.90;60.20;;;;;;4953156;28;20050;-62
2024/01/11 12:14:39;;;;;;;60.63;32.72;;;4.00;60.10;;;;;;4952169;28;20019;-62
2024/01/11 12:17:06;;;;;;;63.78;32.05;;;4.10;60.20;;;;;;4950939;28;20378;-62
2024/01/11 12:19:32;;;;;;;61.70;31.88;;;4.20;60.00;;;;;;4953779;28;20027;-61
2024/01/11 12:21:59;;;;;;;52.40;29.35;;;4.30;60.00;;;;;;4941696;28;20031;-61
2024/01/11 12:24:25;;;;;;;60.78;31.13;;;4.30;59.80;;;;;;4955775;28;20057;-61